Inicio METAR Ruta Wind Satelite

Informe Meteorológico

Fecha: 2023/03/22 04:48:30 Local
2023.03.22 09:48 UTC


Operación:VFR
SKMR 220900Z NIL =

SKMR 220300Z 23004KT 9999 FEW020 26/24 Q1010 RMK A2985
SKMR 220200Z 00000KT 9999 FEW020 26/23 Q1010 RMK A2983
SKMR 220100Z 33004KT 300V010 9999 FEW020 27/23 Q1009 RMK A2982
SKMR 220000Z 33004KT 300V360 9999 FEW020 SCT200 28/23 Q1009 RMK A2980
SKMR 212300Z 31010KT 9999 FEW022 30/22 Q1008 RMK A2978